CheckWX is a tool to help pilots better visualize weather data.  It is not intended as a substitute for an official pre-flight weather briefing.

08:52:44 UTC

ESNO METAR
Örnsköldsvik Airport
Örnsköldsvik, Sweden
Current

33 mins ago

ESNO 220820Z 04008KT 340V080 CAVOK 19/07 Q1013
Observed
May-22 @ 08:20 UTC
Wind
  • 040° at 8 KTS
Visibility
10,000+ meters
Flight Rules
VFR
Cloud Levels
  • Clear skies
Temperature
19°C / 66°F
Dewpoint
C / 45°F
Humidity
46%
Altimeter
29.91" Hg
Pressure
1012.92 hPa
Previous

1 hour ago

ESNO 220750Z 01008KT 340V050 CAVOK 19/07 Q1013
Observed
May-22 @ 07:50 UTC
Wind
  • 010° at 8 KTS
Visibility
10,000+ meters
Flight Rules
VFR
Cloud Levels
  • Clear skies
Temperature
19°C / 66°F
Dewpoint
C / 45°F
Humidity
46%
Altimeter
29.91" Hg
Pressure
1012.92 hPa
Previous

2 hours ago

ESNO 220720Z 01008KT 330V060 CAVOK 18/08 Q1013
Observed
May-22 @ 07:20 UTC
Wind
  • 010° at 8 KTS
Visibility
10,000+ meters
Flight Rules
VFR
Cloud Levels
  • Clear skies
Temperature
18°C / 64°F
Dewpoint
C / 46°F
Humidity
52%
Altimeter
29.91" Hg
Pressure
1012.92 hPa